Time;durP1;ratioP1;P1;durP2;ratioP2;P2;SDS_P1;SDS_P2;PMS_P1;PMS_P2;Temp;Humidity;BMP_temperature;BMP_pressure;BME280_temperature;BME280_humidity;BME280_pressure;Samples;Min_cycle;Max_cycle;Signal;HPM_P1;HPM_P2
2022/10/12 00:01:04;;;;;;;99.93;37.67;;;;;;;;;;6313641;28;20135;-64
2022/10/12 00:04:08;;;;;;;103.30;35.50;;;;;;;;;;6310623;28;20052;-64
2022/10/12 00:07:09;;;;;;;104.78;37.28;;;;;;;;;;6313490;28;20537;-62
2022/10/12 00:10:09;;;;;;;97.30;37.83;;;;;;;;;;6312568;28;20048;-61
2022/10/12 00:13:10;;;;;;;100.80;38.53;;;;;;;;;;6315793;28;20054;-64
2022/10/12 00:16:12;;;;;;;105.85;39.78;;;;;;;;;;6310747;28;20040;-65
2022/10/12 00:19:13;;;;;;;111.43;38.60;;;;;;;;;;6311341;28;20131;-65
2022/10/12 00:22:14;;;;;;;95.55;37.58;;;;;;;;;;6313946;28;20052;-63
2022/10/12 00:25:15;;;;;;;100.97;38.20;;;;;;;;;;6312249;28;20614;-64
2022/10/12 00:28:15;;;;;;;98.18;37.75;;;;;;;;;;6310175;28;20032;-64
2022/10/12 00:31:19;;;;;;;99.40;35.58;;;;;;;;;;6306588;28;20126;-63
2022/10/12 00:34:19;;;;;;;106.22;39.75;;;;;;;;;;6308932;28;20824;-63
2022/10/12 00:37:20;;;;;;;96.63;36.95;;;;;;;;;;6312845;28;20044;-66
2022/10/12 00:40:22;;;;;;;98.45;36.97;;;;;;;;;;6307886;28;20376;-63
2022/10/12 00:43:35;;;;;;;91.05;33.13;;;;;;;;;;6309575;28;20044;-66
2022/10/12 00:46:39;;;;;;;88.28;33.35;;;;;;;;;;6308049;28;20044;-65
2022/10/12 00:49:42;;;;;;;89.05;35.00;;;;;;;;;;6309191;28;20066;-66
2022/10/12 00:52:51;;;;;;;86.05;33.50;;;;;;;;;;6308540;28;20136;-63
2022/10/12 00:55:58;;;;;;;86.45;31.80;;;;;;;;;;6310617;28;20181;-62
2022/10/12 00:59:01;;;;;;;87.72;32.90;;;;;;;;;;6309995;28;20052;-63
2022/10/12 01:02:02;;;;;;;89.07;30.50;;;;;;;;;;6310540;28;20067;-61
2022/10/12 01:05:04;;;;;;;78.55;29.08;;;;;;;;;;6314419;28;20059;-65
2022/10/12 01:08:04;;;;;;;77.13;29.48;;;;;;;;;;6310864;28;20483;-63
2022/10/12 01:11:05;;;;;;;81.07;31.75;;;;;;;;;;6308757;28;20085;-65
2022/10/12 01:14:06;;;;;;;83.28;30.23;;;;;;;;;;6310374;28;20040;-64
2022/10/12 01:17:15;;;;;;;88.50;30.63;;;;;;;;;;6309813;28;20094;-64
2022/10/12 01:20:38;;;;;;;82.45;30.27;;;;;;;;;;6308935;28;20526;-66
2022/10/12 01:24:16;;;;;;;79.95;30.77;;;;;;;;;;6307272;28;20611;-65
2022/10/12 01:27:23;;;;;;;73.22;28.67;;;;;;;;;;6307537;28;20143;-65
2022/10/12 01:30:38;;;;;;;73.53;30.17;;;;;;;;;;6308042;28;20055;-62
2022/10/12 01:33:57;;;;;;;74.78;28.65;;;;;;;;;;6306885;28;20067;-65
2022/10/12 01:37:11;;;;;;;77.82;29.30;;;;;;;;;;6308071;28;20075;-65
2022/10/12 01:40:19;;;;;;;80.57;30.13;;;;;;;;;;6307367;28;20048;-66
2022/10/12 01:43:20;;;;;;;75.60;27.65;;;;;;;;;;6306733;28;20737;-64
2022/10/12 01:46:23;;;;;;;80.53;28.05;;;;;;;;;;6309448;28;20052;-64
2022/10/12 01:49:29;;;;;;;71.30;27.80;;;;;;;;;;6309013;28;20086;-65
2022/10/12 01:52:42;;;;;;;73.78;26.88;;;;;;;;;;6308646;28;20048;-62
2022/10/12 01:55:51;;;;;;;75.30;27.00;;;;;;;;;;6315281;28;20048;-63
2022/10/12 01:59:45;;;;;;;66.78;26.63;;;;;;;;;;6315994;28;20074;-63
2022/10/12 02:03:18;;;;;;;71.70;26.23;;;;;;;;;;6262470;28;20048;-62
2022/10/12 02:06:27;;;;;;;60.60;23.63;;;;;;;;;;6315208;28;20177;-65
2022/10/12 02:09:31;;;;;;;68.10;26.95;;;;;;;;;;6314068;28;20044;-63
2022/10/12 02:12:33;;;;;;;65.82;25.33;;;;;;;;;;6314375;28;20051;-65
2022/10/12 02:15:36;;;;;;;71.43;28.10;;;;;;;;;;6312401;28;20044;-64
2022/10/12 02:18:41;;;;;;;69.38;27.75;;;;;;;;;;6309990;28;20050;-63
2022/10/12 02:21:43;;;;;;;76.93;26.27;;;;;;;;;;6314722;28;20048;-61
2022/10/12 02:24:47;;;;;;;80.15;25.48;;;;;;;;;;6316551;28;20138;-62
2022/10/12 02:28:02;;;;;;;86.63;31.42;;;;;;;;;;6311720;28;20398;-61
2022/10/12 02:31:34;;;;;;;81.68;29.75;;;;;;;;;;6312773;28;20086;-65
2022/10/12 02:34:42;;;;;;;78.40;29.42;;;;;;;;;;6290454;28;20049;-63
2022/10/12 02:37:51;;;;;;;76.93;30.48;;;;;;;;;;6714887;22;20489;-61
2022/10/12 02:41:07;;;;;;;83.25;29.90;;;;;;;;;;6282937;28;20450;-63
2022/10/12 02:44:11;;;;;;;83.20;30.35;;;;;;;;;;6285229;28;20059;-62
2022/10/12 02:47:14;;;;;;;84.70;32.45;;;;;;;;;;6286138;28;20055;-61
2022/10/12 02:50:17;;;;;;;89.15;32.35;;;;;;;;;;6286329;28;20139;-60
2022/10/12 02:53:19;;;;;;;101.97;30.88;;;;;;;;;;6289307;28;20044;-61
2022/10/12 02:56:19;;;;;;;89.43;31.98;;;;;;;;;;6288172;28;20128;-65
2022/10/12 02:59:20;;;;;;;94.30;32.58;;;;;;;;;;6284646;28;20055;-61
2022/10/12 03:02:20;;;;;;;89.45;31.20;;;;;;;;;;6285840;28;20044;-61
2022/10/12 03:05:21;;;;;;;84.70;31.35;;;;;;;;;;6285308;28;20048;-62
2022/10/12 03:08:21;;;;;;;76.53;30.02;;;;;;;;;;6286231;28;20402;-61
2022/10/12 03:11:22;;;;;;;91.65;29.88;;;;;;;;;;6283522;28;20044;-60
2022/10/12 03:14:25;;;;;;;78.00;28.50;;;;;;;;;;6286694;28;20064;-62
2022/10/12 03:17:26;;;;;;;85.47;29.10;;;;;;;;;;6288069;28;20048;-62
2022/10/12 03:20:27;;;;;;;85.85;29.35;;;;;;;;;;6290045;28;20055;-64
2022/10/12 03:23:27;;;;;;;80.40;28.20;;;;;;;;;;6288768;28;20044;-62
2022/10/12 03:26:28;;;;;;;81.07;30.65;;;;;;;;;;6287560;28;20048;-61
2022/10/12 03:29:28;;;;;;;84.75;29.77;;;;;;;;;;6285294;28;20053;-62
2022/10/12 03:32:29;;;;;;;80.80;30.02;;;;;;;;;;6290954;28;20060;-64
2022/10/12 03:35:29;;;;;;;78.50;28.60;;;;;;;;;;6289303;28;20883;-64
2022/10/12 03:38:30;;;;;;;78.28;29.60;;;;;;;;;;6286166;28;20489;-65
2022/10/12 03:41:30;;;;;;;86.95;31.65;;;;;;;;;;6284383;28;20049;-61
2022/10/12 03:44:31;;;;;;;87.70;30.63;;;;;;;;;;6285791;28;20482;-61
2022/10/12 03:47:31;;;;;;;85.70;30.08;;;;;;;;;;6287493;28;20052;-65
2022/10/12 03:50:33;;;;;;;99.18;30.77;;;;;;;;;;6285758;28;20076;-61
2022/10/12 03:53:34;;;;;;;75.57;28.95;;;;;;;;;;6289298;28;20051;-61
2022/10/12 03:56:34;;;;;;;84.28;32.40;;;;;;;;;;6286160;28;20486;-65
2022/10/12 03:59:35;;;;;;;81.75;29.80;;;;;;;;;;6287069;28;20406;-64
2022/10/12 04:02:36;;;;;;;91.65;33.38;;;;;;;;;;6287359;28;20044;-63
2022/10/12 04:05:36;;;;;;;90.38;31.73;;;;;;;;;;6286926;28;20051;-65
2022/10/12 04:08:37;;;;;;;92.28;34.40;;;;;;;;;;6283734;28;20487;-61
2022/10/12 04:11:37;;;;;;;95.18;32.95;;;;;;;;;;6285109;28;20062;-60
2022/10/12 04:14:38;;;;;;;105.20;34.38;;;;;;;;;;6286779;28;20177;-61
2022/10/12 04:17:39;;;;;;;92.05;32.65;;;;;;;;;;6287576;28;20044;-65
2022/10/12 04:20:40;;;;;;;88.27;31.97;;;;;;;;;;6286335;28;20139;-61
2022/10/12 04:23:41;;;;;;;90.63;33.05;;;;;;;;;;6288869;28;20312;-65
2022/10/12 04:26:42;;;;;;;103.30;35.10;;;;;;;;;;6288860;28;20083;-65
2022/10/12 04:29:42;;;;;;;95.05;35.28;;;;;;;;;;6284227;28;20040;-65
2022/10/12 04:32:43;;;;;;;97.90;34.25;;;;;;;;;;6285845;28;20635;-64
2022/10/12 04:35:43;;;;;;;94.28;33.25;;;;;;;;;;6286072;28;20045;-61
2022/10/12 04:38:44;;;;;;;101.82;35.47;;;;;;;;;;6284188;28;20139;-64
2022/10/12 04:41:44;;;;;;;106.82;35.28;;;;;;;;;;6286634;28;20809;-64
2022/10/12 04:44:45;;;;;;;93.35;33.75;;;;;;;;;;6286698;28;20068;-61
2022/10/12 04:47:46;;;;;;;103.78;34.13;;;;;;;;;;6289279;28;20059;-61
2022/10/12 04:50:46;;;;;;;90.45;34.03;;;;;;;;;;6284625;28;20047;-63
2022/10/12 04:53:47;;;;;;;92.18;33.28;;;;;;;;;;6285178;28;20094;-61
2022/10/12 04:56:47;;;;;;;93.68;33.08;;;;;;;;;;6282250;28;20064;-60
2022/10/12 04:59:48;;;;;;;83.50;33.10;;;;;;;;;;6279069;28;20044;-63
2022/10/12 05:02:49;;;;;;;98.43;33.67;;;;;;;;;;6281208;28;20473;-64
2022/10/12 05:05:50;;;;;;;101.00;34.03;;;;;;;;;;6284596;28;20048;-66
2022/10/12 05:08:51;;;;;;;84.25;32.92;;;;;;;;;;6284515;28;20056;-60
2022/10/12 05:11:51;;;;;;;90.53;32.65;;;;;;;;;;6282060;28;20029;-61
2022/10/12 05:14:52;;;;;;;98.03;34.95;;;;;;;;;;6283413;28;20070;-61
2022/10/12 05:17:52;;;;;;;95.10;33.50;;;;;;;;;;6282343;28;20407;-65
2022/10/12 05:20:53;;;;;;;102.03;34.67;;;;;;;;;;6278950;28;20135;-61
2022/10/12 05:23:53;;;;;;;90.68;35.28;;;;;;;;;;6284133;28;20048;-60
2022/10/12 05:26:55;;;;;;;90.03;32.55;;;;;;;;;;6282446;28;20121;-65
2022/10/12 05:29:56;;;;;;;86.37;33.50;;;;;;;;;;6282486;28;20038;-61
2022/10/12 05:32:56;;;;;;;101.97;34.40;;;;;;;;;;6287923;28;20040;-62
2022/10/12 05:35:57;;;;;;;90.60;32.95;;;;;;;;;;6287860;28;20713;-67
2022/10/12 05:38:57;;;;;;;112.10;36.58;;;;;;;;;;6287986;28;20526;-62
2022/10/12 05:41:58;;;;;;;100.07;35.28;;;;;;;;;;6289507;28;20140;-63
2022/10/12 05:44:59;;;;;;;95.70;34.15;;;;;;;;;;6287392;28;20036;-60
2022/10/12 05:47:59;;;;;;;109.72;37.35;;;;;;;;;;6293234;28;20464;-64
2022/10/12 05:51:00;;;;;;;106.70;37.58;;;;;;;;;;6295110;28;20079;-62
2022/10/12 05:54:00;;;;;;;106.72;38.78;;;;;;;;;;6296534;28;20530;-65
2022/10/12 05:57:01;;;;;;;103.20;39.85;;;;;;;;;;6296117;28;20063;-63
2022/10/12 06:00:04;;;;;;;105.22;37.75;;;;;;;;;;6291320;28;20048;-63
2022/10/12 06:03:05;;;;;;;91.72;33.97;;;;;;;;;;6288281;28;20572;-64
2022/10/12 06:06:06;;;;;;;97.15;33.83;;;;;;;;;;6284382;28;20135;-63
2022/10/12 06:09:07;;;;;;;89.53;32.38;;;;;;;;;;6285723;28;20167;-63
2022/10/12 06:12:07;;;;;;;90.70;35.95;;;;;;;;;;6287847;28;20054;-64
2022/10/12 06:15:08;;;;;;;85.88;33.42;;;;;;;;;;6290058;28;20050;-64
2022/10/12 06:18:09;;;;;;;102.15;34.38;;;;;;;;;;6288690;28;20055;-62
2022/10/12 06:21:09;;;;;;;87.25;33.20;;;;;;;;;;6285183;28;20048;-63
2022/10/12 06:24:10;;;;;;;106.95;35.78;;;;;;;;;;6289244;28;20049;-61
2022/10/12 06:27:11;;;;;;;98.28;32.60;;;;;;;;;;6290041;28;20044;-64
2022/10/12 06:30:12;;;;;;;94.28;34.45;;;;;;;;;;6288945;28;20068;-65
2022/10/12 06:33:13;;;;;;;102.10;35.90;;;;;;;;;;6289702;28;20135;-65
2022/10/12 06:36:13;;;;;;;91.75;33.60;;;;;;;;;;6286514;28;20045;-63
2022/10/12 06:39:14;;;;;;;100.13;36.80;;;;;;;;;;6286761;28;20088;-61
2022/10/12 06:42:15;;;;;;;112.50;39.78;;;;;;;;;;6288279;28;20044;-64
2022/10/12 06:45:16;;;;;;;96.20;36.20;;;;;;;;;;6285191;28;20134;-63
2022/10/12 06:48:16;;;;;;;142.93;48.97;;;;;;;;;;6287789;28;20043;-64
2022/10/12 06:51:17;;;;;;;167.95;50.90;;;;;;;;;;6286264;28;20041;-61
2022/10/12 06:54:17;;;;;;;164.07;55.05;;;;;;;;;;6287845;28;20052;-61
2022/10/12 06:57:18;;;;;;;147.55;49.85;;;;;;;;;;6287707;28;20478;-63
2022/10/12 07:00:18;;;;;;;135.80;44.95;;;;;;;;;;6283211;28;20475;-63
2022/10/12 07:03:20;;;;;;;114.95;41.40;;;;;;;;;;6288478;28;20499;-61
2022/10/12 07:06:20;;;;;;;126.13;42.60;;;;;;;;;;6286809;28;20051;-61
2022/10/12 07:09:21;;;;;;;118.65;42.42;;;;;;;;;;6282744;28;20549;-64
2022/10/12 07:12:21;;;;;;;130.52;42.63;;;;;;;;;;6288518;28;20075;-63
2022/10/12 07:15:22;;;;;;;141.38;48.25;;;;;;;;;;6287873;28;20045;-64
2022/10/12 07:18:23;;;;;;;136.23;45.13;;;;;;;;;;6285033;28;20386;-64
2022/10/12 07:21:26;;;;;;;158.88;49.78;;;;;;;;;;6283622;28;20086;-64
2022/10/12 07:24:34;;;;;;;136.95;46.10;;;;;;;;;;6286672;28;20044;-62
2022/10/12 07:27:35;;;;;;;131.98;47.35;;;;;;;;;;6286556;28;20071;-62
2022/10/12 07:30:35;;;;;;;123.75;48.53;;;;;;;;;;6284072;28;20046;-64
2022/10/12 07:33:39;;;;;;;147.35;52.30;;;;;;;;;;6286368;28;20055;-62
2022/10/12 07:36:43;;;;;;;154.05;48.72;;;;;;;;;;6285811;28;20041;-63
2022/10/12 07:39:44;;;;;;;131.48;50.90;;;;;;;;;;6284200;28;20136;-62
2022/10/12 07:42:44;;;;;;;146.98;54.08;;;;;;;;;;6286545;28;20040;-63
2022/10/12 07:45:45;;;;;;;138.40;52.40;;;;;;;;;;6283861;28;20044;-61
2022/10/12 07:48:45;;;;;;;138.27;53.50;;;;;;;;;;6284098;28;20468;-64
2022/10/12 07:51:46;;;;;;;157.77;55.05;;;;;;;;;;6283404;28;20076;-66
2022/10/12 07:54:46;;;;;;;168.65;56.03;;;;;;;;;;6284634;28;20056;-66
2022/10/12 07:57:47;;;;;;;158.38;56.95;;;;;;;;;;6285717;28;20133;-64
2022/10/12 08:00:48;;;;;;;153.10;57.10;;;;;;;;;;6280818;28;20087;-64
2022/10/12 08:03:49;;;;;;;159.60;57.78;;;;;;;;;;6288596;28;20051;-62
2022/10/12 08:06:49;;;;;;;165.50;57.88;;;;;;;;;;6283524;28;20051;-62
2022/10/12 08:09:50;;;;;;;161.55;57.67;;;;;;;;;;6285257;28;20045;-63
2022/10/12 08:12:50;;;;;;;147.70;55.80;;;;;;;;;;6284257;28;20036;-62
2022/10/12 08:15:51;;;;;;;153.80;51.75;;;;;;;;;;6284166;28;20854;-63
2022/10/12 08:18:51;;;;;;;135.75;49.80;;;;;;;;;;6282330;28;20052;-63
2022/10/12 08:21:52;;;;;;;139.65;49.72;;;;;;;;;;6284805;28;20101;-63
2022/10/12 08:24:52;;;;;;;145.88;50.20;;;;;;;;;;6285067;28;20403;-62
2022/10/12 08:27:53;;;;;;;143.43;49.67;;;;;;;;;;6285563;28;20048;-61
2022/10/12 08:30:54;;;;;;;135.38;47.40;;;;;;;;;;6285669;28;20048;-65
2022/10/12 08:33:56;;;;;;;125.28;43.88;;;;;;;;;;6282926;28;20472;-62
2022/10/12 08:36:58;;;;;;;126.88;41.90;;;;;;;;;;6283037;28;20048;-63
2022/10/12 08:39:58;;;;;;;108.78;37.05;;;;;;;;;;6283326;28;20527;-65
2022/10/12 08:43:45;;;;;;;80.93;29.17;;;;;;;;;;6284375;28;20056;-64
2022/10/12 08:46:46;;;;;;;50.72;18.60;;;;;;;;;;6283132;28;20128;-62
2022/10/12 08:49:49;;;;;;;52.00;19.35;;;;;;;;;;6283103;28;20072;-64
2022/10/12 08:52:55;;;;;;;55.40;19.83;;;;;;;;;;6280611;28;20051;-61
2022/10/12 08:55:57;;;;;;;58.67;19.70;;;;;;;;;;6285003;28;20040;-62
2022/10/12 08:59:00;;;;;;;41.63;15.82;;;;;;;;;;6285832;28;20213;-65
2022/10/12 09:02:35;;;;;;;47.63;17.73;;;;;;;;;;6284189;28;20097;-62
2022/10/12 09:05:42;;;;;;;43.28;15.88;;;;;;;;;;6283726;28;20040;-63
2022/10/12 09:09:10;;;;;;;51.00;16.90;;;;;;;;;;6292709;28;20494;-61
2022/10/12 09:12:17;;;;;;;37.35;13.43;;;;;;;;;;6297281;28;20147;-64
2022/10/12 09:15:21;;;;;;;40.45;14.90;;;;;;;;;;6297066;28;20571;-65
2022/10/12 09:18:42;;;;;;;45.65;15.18;;;;;;;;;;6288887;28;20072;-62
2022/10/12 09:21:45;;;;;;;48.95;14.00;;;;;;;;;;6288718;28;20052;-63
2022/10/12 09:24:49;;;;;;;43.85;16.65;;;;;;;;;;6288348;28;21184;-62
2022/10/12 09:27:50;;;;;;;40.53;17.17;;;;;;;;;;6287764;28;20491;-62
2022/10/12 09:31:09;;;;;;;51.78;19.10;;;;;;;;;;6288266;28;20616;-65
2022/10/12 09:34:10;;;;;;;41.78;15.85;;;;;;;;;;6280089;28;20541;-63
2022/10/12 09:37:23;;;;;;;37.50;16.48;;;;;;;;;;6289400;28;20052;-65
2022/10/12 09:40:30;;;;;;;41.45;17.27;;;;;;;;;;6286617;28;20059;-62
2022/10/12 09:43:31;;;;;;;36.60;13.63;;;;;;;;;;6287514;28;20040;-65
2022/10/12 09:46:46;;;;;;;32.70;14.52;;;;;;;;;;6289598;28;20160;-63
2022/10/12 09:49:50;;;;;;;41.08;16.70;;;;;;;;;;6288849;28;20048;-61
2022/10/12 09:52:54;;;;;;;42.95;17.45;;;;;;;;;;6285457;28;20052;-66
2022/10/12 09:56:05;;;;;;;38.25;14.88;;;;;;;;;;6288094;28;20527;-61
2022/10/12 09:59:22;;;;;;;42.33;15.93;;;;;;;;;;6289102;28;20044;-63
2022/10/12 10:02:25;;;;;;;53.63;20.92;;;;;;;;;;6287007;28;20129;-62
2022/10/12 10:05:27;;;;;;;31.65;11.60;;;;;;;;;;6287489;28;20055;-63
2022/10/12 10:08:28;;;;;;;;;;;;;;;;;;6286214;28;20102;-65
2022/10/12 10:11:30;;;;;;;30.60;11.15;;;;;;;;;;6287039;28;20795;-62
2022/10/12 10:14:31;;;;;;;27.00;10.25;;;;;;;;;;6287102;28;20054;-65
2022/10/12 10:17:32;;;;;;;27.15;10.32;;;;;;;;;;6287303;28;20402;-62
2022/10/12 10:20:50;;;;;;;198.10;76.38;;;;;;;;;;6288201;28;20044;-64
2022/10/12 10:23:54;;;;;;;38.67;16.52;;;;;;;;;;6287432;28;20045;-65
2022/10/12 10:27:04;;;;;;;23.85;10.18;;;;;;;;;;6286663;28;20093;-62
2022/10/12 10:30:26;;;;;;;26.98;11.40;;;;;;;;;;6288258;28;20140;-61
2022/10/12 10:33:27;;;;;;;32.37;10.67;;;;;;;;;;6292585;28;20072;-62
2022/10/12 10:36:28;;;;;;;31.80;11.60;;;;;;;;;;6293584;28;20049;-65
2022/10/12 10:39:43;;;;;;;27.45;10.60;;;;;;;;;;6293314;28;20595;-62
2022/10/12 10:42:48;;;;;;;29.65;11.82;;;;;;;;;;6289931;28;20048;-65
2022/10/12 10:45:51;;;;;;;30.02;11.35;;;;;;;;;;6287700;28;20054;-65
2022/10/12 10:48:57;;;;;;;32.00;11.88;;;;;;;;;;6285338;28;20087;-62
2022/10/12 10:51:58;;;;;;;33.33;12.07;;;;;;;;;;6286208;28;20068;-62
2022/10/12 10:55:22;;;;;;;29.38;11.23;;;;;;;;;;6288284;28;20125;-64
2022/10/12 10:58:42;;;;;;;26.33;11.77;;;;;;;;;;6285773;28;20465;-66
2022/10/12 11:01:58;;;;;;;30.02;12.68;;;;;;;;;;6288522;28;20044;-64
2022/10/12 11:05:26;;;;;;;25.63;11.07;;;;;;;;;;6285224;28;20045;-63
2022/10/12 11:08:30;;;;;;;30.27;10.13;;;;;;;;;;6285137;28;20071;-63
2022/10/12 11:11:35;;;;;;;32.03;12.43;;;;;;;;;;6289683;28;20153;-63
2022/10/12 11:14:41;;;;;;;28.35;11.23;;;;;;;;;;6285068;28;20047;-65
2022/10/12 11:17:49;;;;;;;45.38;18.55;;;;;;;;;;6286480;28;20080;-65
2022/10/12 11:21:12;;;;;;;30.13;10.88;;;;;;;;;;6286276;28;20045;-63
2022/10/12 11:24:19;;;;;;;25.70;10.30;;;;;;;;;;6284582;28;20056;-65
2022/10/12 11:27:37;;;;;;;26.65;10.48;;;;;;;;;;6284838;28;20052;-63
2022/10/12 11:30:48;;;;;;;30.30;10.25;;;;;;;;;;6287432;28;20135;-62
2022/10/12 11:33:50;;;;;;;22.45;9.93;;;;;;;;;;6285956;28;20044;-62
2022/10/12 11:36:54;;;;;;;37.50;11.40;;;;;;;;;;6286203;28;20048;-65
2022/10/12 11:39:57;;;;;;;21.90;9.63;;;;;;;;;;6286327;28;20052;-63
2022/10/12 11:43:05;;;;;;;25.63;10.02;;;;;;;;;;6285409;28;20044;-66
2022/10/12 11:46:10;;;;;;;20.52;8.30;;;;;;;;;;6282688;28;20052;-67
2022/10/12 11:49:19;;;;;;;21.60;8.30;;;;;;;;;;6286276;28;20479;-65
2022/10/12 11:52:21;;;;;;;26.70;9.98;;;;;;;;;;6289384;28;20059;-63
2022/10/12 11:55:55;;;;;;;23.73;9.10;;;;;;;;;;6287064;28;20115;-66
2022/10/12 11:59:01;;;;;;;18.70;8.50;;;;;;;;;;6284702;28;20586;-67
2022/10/12 12:02:20;;;;;;;21.13;8.40;;;;;;;;;;6287716;28;20532;-65
2022/10/12 12:05:21;;;;;;;15.05;7.38;;;;;;;;;;6287032;28;20055;-65
2022/10/12 12:08:41;;;;;;;18.75;8.35;;;;;;;;;;6285613;28;20462;-65
2022/10/12 12:11:42;;;;;;;21.85;8.13;;;;;;;;;;6284812;28;20477;-62
2022/10/12 12:14:58;;;;;;;25.17;7.90;;;;;;;;;;6285647;28;20106;-62
2022/10/12 12:18:29;;;;;;;16.15;7.78;;;;;;;;;;6285697;28;20048;-65
2022/10/12 12:21:29;;;;;;;17.75;7.88;;;;;;;;;;6262853;28;20056;-62
2022/10/12 12:24:30;;;;;;;19.73;7.72;;;;;;;;;;6281294;28;20494;-62
2022/10/12 12:27:31;;;;;;;18.92;8.15;;;;;;;;;;6284199;28;21280;-64
2022/10/12 12:30:40;;;;;;;21.02;8.43;;;;;;;;;;6285186;28;20675;-66
2022/10/12 12:33:45;;;;;;;16.90;6.05;;;;;;;;;;6283616;28;20135;-64
2022/10/12 12:36:49;;;;;;;27.65;7.63;;;;;;;;;;6282080;28;20059;-67
2022/10/12 12:39:53;;;;;;;16.60;6.30;;;;;;;;;;6284901;28;20147;-66
2022/10/12 12:43:29;;;;;;;18.42;7.10;;;;;;;;;;6285837;28;20059;-63
2022/10/12 12:46:51;;;;;;;29.95;8.63;;;;;;;;;;6284327;28;20048;-62
2022/10/12 12:49:53;;;;;;;;;;;;;;;;;;6283379;28;20048;-66
2022/10/12 12:53:20;;;;;;;20.73;5.95;;;;;;;;;;6285227;28;19921;-63
2022/10/12 12:56:38;;;;;;;22.17;6.60;;;;;;;;;;6284632;28;20048;-65
2022/10/12 13:00:05;;;;;;;16.08;7.20;;;;;;;;;;6285039;28;20048;-64
2022/10/12 13:03:32;;;;;;;16.70;6.40;;;;;;;;;;6281051;28;20098;-66
2022/10/12 13:06:56;;;;;;;18.95;5.93;;;;;;;;;;6277610;28;20064;-63
2022/10/12 13:10:27;;;;;;;20.58;6.32;;;;;;;;;;6266252;28;20131;-62
2022/10/12 13:13:48;;;;;;;21.40;6.72;;;;;;;;;;6265220;28;20473;-64
2022/10/12 13:17:14;;;;;;;15.88;8.00;;;;;;;;;;6268733;28;20455;-64
2022/10/12 13:20:21;;;;;;;24.30;8.10;;;;;;;;;;6266464;28;20914;-61
2022/10/12 13:23:25;;;;;;;15.95;6.72;;;;;;;;;;6270067;28;20048;-66
2022/10/12 13:26:28;;;;;;;14.93;6.03;;;;;;;;;;6268378;28;20103;-66
2022/10/12 13:29:39;;;;;;;20.40;6.70;;;;;;;;;;6269495;28;20053;-66
2022/10/12 13:32:54;;;;;;;17.85;6.55;;;;;;;;;;6271739;28;20048;-65
2022/10/12 13:36:07;;;;;;;11.80;5.05;;;;;;;;;;6270444;28;20048;-65
2022/10/12 13:39:17;;;;;;;18.35;6.25;;;;;;;;;;6271062;28;20063;-65
2022/10/12 13:42:26;;;;;;;17.40;6.25;;;;;;;;;;6273874;28;21583;-62
2022/10/12 13:45:27;;;;;;;13.82;5.35;;;;;;;;;;6267111;28;20052;-65
2022/10/12 13:48:28;;;;;;;14.77;5.93;;;;;;;;;;6273716;28;20551;-64
2022/10/12 13:51:30;;;;;;;21.90;6.88;;;;;;;;;;6268618;28;20144;-66
2022/10/12 13:54:30;;;;;;;15.50;6.95;;;;;;;;;;6272499;28;20099;-61
2022/10/12 13:57:40;;;;;;;13.18;5.97;;;;;;;;;;6278959;28;20048;-64
2022/10/12 14:00:47;;;;;;;15.88;6.00;;;;;;;;;;6280686;28;20533;-61
2022/10/12 14:03:47;;;;;;;12.18;5.38;;;;;;;;;;6270011;28;20123;-65
2022/10/12 14:07:19;;;;;;;16.33;5.90;;;;;;;;;;6266632;28;20063;-62
2022/10/12 14:10:31;;;;;;;18.13;5.95;;;;;;;;;;6253128;28;20157;-62
2022/10/12 14:13:33;;;;;;;14.13;6.00;;;;;;;;;;6264324;28;20056;-60
2022/10/12 14:16:34;;;;;;;;;;;;;;;;;;6268619;28;20143;-64
2022/10/12 14:19:40;;;;;;;17.48;6.60;;;;;;;;;;6265578;28;19924;-64
2022/10/12 14:22:46;;;;;;;21.80;8.20;;;;;;;;;;6265557;28;20045;-66
2022/10/12 14:25:53;;;;;;;25.95;9.80;;;;;;;;;;6263977;28;20044;-65
2022/10/12 14:28:54;;;;;;;12.32;5.78;;;;;;;;;;6263317;28;20661;-65
2022/10/12 14:31:57;;;;;;;12.57;5.40;;;;;;;;;;6264111;28;20101;-65
2022/10/12 14:35:11;;;;;;;17.85;6.53;;;;;;;;;;6266563;28;20144;-61
2022/10/12 14:38:37;;;;;;;25.77;8.25;;;;;;;;;;6266948;28;20544;-66
2022/10/12 14:41:48;;;;;;;19.67;6.80;;;;;;;;;;6264759;28;20398;-66
2022/10/12 14:44:49;;;;;;;14.35;6.70;;;;;;;;;;6268644;28;20831;-66
2022/10/12 14:47:50;;;;;;;20.63;7.17;;;;;;;;;;6267193;28;20053;-67
2022/10/12 14:50:51;;;;;;;13.95;6.00;;;;;;;;;;6266335;28;20139;-62
2022/10/12 14:53:59;;;;;;;21.73;7.28;;;;;;;;;;6264801;28;20049;-67
2022/10/12 14:57:15;;;;;;;19.15;7.20;;;;;;;;;;6267678;28;20052;-63
2022/10/12 15:00:31;;;;;;;21.30;7.82;;;;;;;;;;6267390;28;20052;-62
2022/10/12 15:03:31;;;;;;;19.45;7.18;;;;;;;;;;6262605;28;20041;-66
2022/10/12 15:06:32;;;;;;;24.65;7.50;;;;;;;;;;6266958;28;20045;-62
2022/10/12 15:09:32;;;;;;;26.65;9.25;;;;;;;;;;6264038;28;20051;-61
2022/10/12 15:12:34;;;;;;;36.38;17.50;;;;;;;;;;6265956;28;20056;-64
2022/10/12 15:15:41;;;;;;;29.70;14.23;;;;;;;;;;6267538;28;20071;-63
2022/10/12 15:18:41;;;;;;;32.67;14.10;;;;;;;;;;6270886;28;20406;-62
2022/10/12 15:21:42;;;;;;;22.92;10.85;;;;;;;;;;6262801;28;20052;-63
2022/10/12 15:24:43;;;;;;;25.05;9.77;;;;;;;;;;6262409;28;20044;-64
2022/10/12 15:27:44;;;;;;;21.35;9.10;;;;;;;;;;6267403;28;20402;-64
2022/10/12 15:30:45;;;;;;;27.15;9.68;;;;;;;;;;6261211;28;20056;-60
2022/10/12 15:33:45;;;;;;;26.37;10.50;;;;;;;;;;6261816;28;20055;-61
2022/10/12 15:36:46;;;;;;;25.10;10.13;;;;;;;;;;6264793;28;20403;-65
2022/10/12 15:39:47;;;;;;;27.15;12.57;;;;;;;;;;6267666;28;20055;-59
2022/10/12 15:42:48;;;;;;;34.50;13.77;;;;;;;;;;6264843;28;20155;-66
2022/10/12 15:45:48;;;;;;;32.78;13.13;;;;;;;;;;6267588;28;20102;-62
2022/10/12 15:48:49;;;;;;;38.72;12.40;;;;;;;;;;6264194;28;20082;-65
2022/10/12 15:51:52;;;;;;;31.13;12.20;;;;;;;;;;6264823;28;20574;-63
2022/10/12 15:54:53;;;;;;;33.10;14.13;;;;;;;;;;6264847;28;20625;-61
2022/10/12 15:57:54;;;;;;;44.53;14.20;;;;;;;;;;6271493;28;20051;-63
2022/10/12 16:00:55;;;;;;;24.80;10.07;;;;;;;;;;6269763;28;20124;-62
2022/10/12 16:03:55;;;;;;;24.90;9.55;;;;;;;;;;6264488;28;20053;-64
2022/10/12 16:07:00;;;;;;;22.92;9.75;;;;;;;;;;6268859;28;20080;-61
2022/10/12 16:10:00;;;;;;;25.50;10.30;;;;;;;;;;6271966;28;20056;-62
2022/10/12 16:13:02;;;;;;;30.58;12.65;;;;;;;;;;6270335;28;20053;-65
2022/10/12 16:16:02;;;;;;;36.65;12.52;;;;;;;;;;6271024;28;20061;-62
2022/10/12 16:19:03;;;;;;;41.75;14.63;;;;;;;;;;6266745;28;20052;-62
2022/10/12 16:22:04;;;;;;;39.08;15.82;;;;;;;;;;6266017;28;20056;-63
2022/10/12 16:25:07;;;;;;;45.40;15.70;;;;;;;;;;6268493;28;20095;-64
2022/10/12 16:28:09;;;;;;;46.28;15.52;;;;;;;;;;6268959;28;20045;-64
2022/10/12 16:31:11;;;;;;;;;;;;;;;;;;6266881;28;20060;-63
2022/10/12 16:34:11;;;;;;;37.95;13.93;;;;;;;;;;6266257;28;19924;-63
2022/10/12 16:37:14;;;;;;;53.03;19.80;;;;;;;;;;6270434;28;20211;-63
2022/10/12 16:40:15;;;;;;;65.15;21.45;;;;;;;;;;6266707;28;20052;-64
2022/10/12 16:43:16;;;;;;;52.08;19.50;;;;;;;;;;6265224;28;20147;-63
2022/10/12 16:46:17;;;;;;;46.45;17.38;;;;;;;;;;6268820;28;21000;-61
2022/10/12 16:49:17;;;;;;;64.82;20.73;;;;;;;;;;6263924;28;20480;-61
2022/10/12 16:52:24;;;;;;;51.20;18.77;;;;;;;;;;6270343;28;20048;-64
2022/10/12 16:55:25;;;;;;;68.43;21.50;;;;;;;;;;6272302;28;20172;-61
2022/10/12 16:58:26;;;;;;;51.03;19.45;;;;;;;;;;6267207;28;20049;-64
2022/10/12 17:01:26;;;;;;;74.47;23.02;;;;;;;;;;6270944;28;20416;-60
2022/10/12 17:04:27;;;;;;;59.53;21.33;;;;;;;;;;6264324;28;20591;-61
2022/10/12 17:07:27;;;;;;;52.13;20.60;;;;;;;;;;6263549;28;20853;-60
2022/10/12 17:10:28;;;;;;;55.35;21.67;;;;;;;;;;6269575;28;20059;-62
2022/10/12 17:13:31;;;;;;;58.30;21.95;;;;;;;;;;6269161;28;20053;-61
2022/10/12 17:16:48;;;;;;;62.42;22.63;;;;;;;;;;6266286;28;20392;-61
2022/10/12 17:19:49;;;;;;;61.92;21.73;;;;;;;;;;6270429;28;20451;-60
2022/10/12 17:22:49;;;;;;;58.17;22.92;;;;;;;;;;6265453;28;20052;-60
2022/10/12 17:25:57;;;;;;;58.85;21.80;;;;;;;;;;6269592;28;20144;-60
2022/10/12 17:28:58;;;;;;;66.57;24.85;;;;;;;;;;6274542;28;20099;-62
2022/10/12 17:31:58;;;;;;;63.15;25.65;;;;;;;;;;6272956;28;20049;-64
2022/10/12 17:34:59;;;;;;;65.00;24.35;;;;;;;;;;6275427;28;20521;-60
2022/10/12 17:37:59;;;;;;;69.53;23.95;;;;;;;;;;6269587;28;20573;-62
2022/10/12 17:41:01;;;;;;;61.53;23.58;;;;;;;;;;6270560;28;20056;-60
2022/10/12 17:44:01;;;;;;;79.90;26.30;;;;;;;;;;6267062;28;20181;-60
2022/10/12 17:47:03;;;;;;;73.28;25.83;;;;;;;;;;6268973;28;20408;-61
2022/10/12 17:50:04;;;;;;;73.97;26.57;;;;;;;;;;6268702;28;20056;-58
2022/10/12 17:53:04;;;;;;;76.13;26.33;;;;;;;;;;6272088;28;20300;-60
2022/10/12 17:56:06;;;;;;;69.60;25.10;;;;;;;;;;6269634;28;20075;-63
2022/10/12 17:59:07;;;;;;;;;;;;;;;;;;6278323;28;20118;-62